Time;durP1;ratioP1;P1;durP2;ratioP2;P2;SDS_P1;SDS_P2;PMS_P1;PMS_P2;Temp;Humidity;BMP_temperature;BMP_pressure;BME280_temperature;BME280_humidity;BME280_pressure;Samples;Min_cycle;Max_cycle;Signal;HPM_P1;HPM_P2
2021/08/19 00:00:16;;;;;;;5.23;4.73;;;19.10;99.90;;;;;;5000669;28;20511;-86
2021/08/19 00:02:44;;;;;;;4.73;4.33;;;19.10;99.90;;;;;;5015452;28;20510;-84
2021/08/19 00:05:11;;;;;;;6.63;4.90;;;19.00;99.90;;;;;;4999383;28;20469;-88
2021/08/19 00:07:39;;;;;;;4.80;4.30;;;18.90;99.90;;;;;;4999576;28;20462;-87
2021/08/19 00:10:06;;;;;;;4.70;4.30;;;18.90;99.90;;;;;;5014568;28;20771;-84
2021/08/19 00:12:33;;;;;;;5.70;5.20;;;18.90;99.90;;;;;;5016390;28;20565;-83
2021/08/19 00:15:00;;;;;;;5.17;4.70;;;18.90;99.90;;;;;;5006921;28;20458;-84
2021/08/19 00:17:27;;;;;;;4.17;3.87;;;18.90;99.90;;;;;;5022731;28;20482;-84
2021/08/19 00:19:54;;;;;;;6.40;5.07;;;18.90;99.90;;;;;;5021921;28;21034;-83
2021/08/19 00:22:21;;;;;;;7.03;4.90;;;18.80;99.90;;;;;;5020104;28;20529;-84
2021/08/19 00:24:47;;;;;;;5.50;4.70;;;18.80;99.90;;;;;;5024406;28;20466;-83
2021/08/19 00:27:14;;;;;;;5.33;4.80;;;18.90;99.90;;;;;;5017565;28;20982;-82
2021/08/19 00:29:41;;;;;;;5.53;5.10;;;18.90;99.90;;;;;;5028948;28;20514;-86
2021/08/19 00:32:08;;;;;;;6.33;5.17;;;18.90;99.90;;;;;;5019121;28;20453;-88
2021/08/19 00:34:35;;;;;;;6.80;5.70;;;18.80;99.90;;;;;;5031733;28;20478;-87
2021/08/19 00:37:02;;;;;;;7.70;6.00;;;18.80;99.90;;;;;;5019334;28;20469;-84
2021/08/19 00:39:30;;;;;;;6.57;5.80;;;18.80;99.90;;;;;;5033704;28;20525;-82
2021/08/19 00:41:58;;;;;;;6.07;5.47;;;18.80;99.90;;;;;;5017494;28;20496;-83
2021/08/19 00:44:26;;;;;;;7.30;5.23;;;18.70;99.90;;;;;;5015937;28;20473;-86
2021/08/19 00:46:52;;;;;;;7.03;5.03;;;18.70;99.90;;;;;;5025101;28;20446;-85
2021/08/19 00:49:19;;;;;;;5.33;4.83;;;18.70;99.90;;;;;;4993020;28;20450;-85
2021/08/19 00:51:48;;;;;;;5.63;5.13;;;18.70;99.90;;;;;;5002264;28;20449;-84
2021/08/19 00:54:21;;;;;;;6.53;5.70;;;18.70;99.90;;;;;;4999876;28;20494;-84
2021/08/19 00:56:55;;;;;;;5.40;4.90;;;18.70;99.90;;;;;;5004790;28;20502;-85
2021/08/19 00:59:23;;;;;;;5.60;5.10;;;18.70;99.90;;;;;;5009485;28;20449;-85
2021/08/19 01:02:00;;;;;;;6.53;5.93;;;18.70;99.90;;;;;;5005876;28;20521;-85
2021/08/19 01:04:31;;;;;;;6.07;5.00;;;18.70;99.90;;;;;;5027713;28;20471;-83
2021/08/19 01:07:01;;;;;;;8.00;5.63;;;18.70;99.90;;;;;;5027655;28;20465;-83
2021/08/19 01:09:29;;;;;;;6.00;4.77;;;18.70;99.90;;;;;;5007539;28;20488;-85
2021/08/19 01:11:56;;;;;;;5.90;5.27;;;18.80;99.90;;;;;;5023455;28;20582;-83
2021/08/19 01:14:23;;;;;;;6.10;5.30;;;18.70;99.90;;;;;;5025885;28;20514;-84
2021/08/19 01:16:50;;;;;;;6.00;5.40;;;18.70;99.90;;;;;;5009480;28;20481;-84
2021/08/19 01:19:20;;;;;;;6.73;5.53;;;18.70;99.90;;;;;;5009525;28;20422;-87
2021/08/19 01:21:50;;;;;;;7.20;5.37;;;18.70;99.90;;;;;;5018775;28;20439;-87
2021/08/19 01:24:17;;;;;;;8.37;5.87;;;18.70;99.90;;;;;;5020574;28;20482;-86
2021/08/19 01:26:47;;;;;;;8.63;5.77;;;18.70;99.90;;;;;;5026391;28;20462;-85
2021/08/19 01:29:14;;;;;;;6.80;6.20;;;18.80;99.90;;;;;;5006997;28;20464;-86
2021/08/19 01:31:55;;;;;;;6.90;6.17;;;18.80;99.90;;;;;;5026506;28;20462;-86
2021/08/19 01:34:22;;;;;;;6.70;5.90;;;18.70;99.90;;;;;;5014440;28;20493;-83
2021/08/19 01:36:49;;;;;;;6.40;5.40;;;18.80;99.90;;;;;;5029094;28;20493;-84
2021/08/19 01:39:16;;;;;;;8.83;6.77;;;18.80;99.90;;;;;;4997631;28;20446;-84
2021/08/19 01:41:42;;;;;;;6.60;6.00;;;18.80;99.90;;;;;;5029293;28;20454;-84
2021/08/19 01:44:09;;;;;;;9.77;5.47;;;18.80;99.90;;;;;;5029244;28;20469;-87
2021/08/19 01:46:36;;;;;;;6.77;5.97;;;18.80;99.90;;;;;;5010739;28;20446;-88
2021/08/19 01:49:03;;;;;;;9.37;6.00;;;18.80;99.90;;;;;;5032112;28;20434;-85
2021/08/19 01:51:33;;;;;;;6.27;5.67;;;18.80;99.90;;;;;;5017527;28;20442;-86
2021/08/19 01:54:01;;;;;;;9.10;5.53;;;18.80;99.90;;;;;;5023039;28;20471;-83
2021/08/19 01:56:28;;;;;;;7.23;6.63;;;18.80;99.90;;;;;;5011778;28;20469;-84
2021/08/19 01:58:55;;;;;;;8.27;5.60;;;18.80;99.90;;;;;;5013160;28;20462;-83
2021/08/19 02:01:24;;;;;;;6.10;5.50;;;18.80;99.90;;;;;;5027737;28;20454;-80
2021/08/19 02:03:53;;;;;;;7.30;6.00;;;18.70;99.90;;;;;;5028750;28;20463;-84
2021/08/19 02:06:20;;;;;;;6.63;5.93;;;18.70;99.90;;;;;;5007931;28;20438;-86
2021/08/19 02:08:47;;;;;;;5.90;5.40;;;18.80;99.90;;;;;;5022574;28;20840;-85
2021/08/19 02:11:14;;;;;;;7.60;6.90;;;18.70;99.90;;;;;;5005862;28;20542;-85
2021/08/19 02:13:41;;;;;;;6.53;6.03;;;18.80;99.90;;;;;;5005682;28;20561;-86
2021/08/19 02:16:08;;;;;;;6.30;5.67;;;18.70;99.90;;;;;;5014299;28;20457;-86
2021/08/19 02:18:35;;;;;;;6.23;5.63;;;18.80;99.90;;;;;;5022037;28;20475;-86
2021/08/19 02:21:01;;;;;;;6.83;5.80;;;18.70;99.90;;;;;;5001516;28;20458;-84
2021/08/19 02:23:28;;;;;;;6.63;5.97;;;18.80;99.90;;;;;;5005799;28;20442;-86
2021/08/19 02:25:55;;;;;;;7.80;5.90;;;18.80;99.90;;;;;;5005746;28;20446;-86
2021/08/19 02:28:22;;;;;;;6.80;5.27;;;18.80;99.90;;;;;;5007852;28;20467;-86
2021/08/19 02:30:49;;;;;;;10.37;5.93;;;18.80;99.90;;;;;;5009278;28;20446;-86
2021/08/19 02:33:16;;;;;;;6.53;5.80;;;18.80;99.90;;;;;;5023268;28;20485;-84
2021/08/19 02:35:42;;;;;;;6.10;5.30;;;18.80;99.90;;;;;;5024743;28;20473;-84
2021/08/19 02:38:09;;;;;;;6.63;5.90;;;18.70;99.90;;;;;;5025307;28;20478;-85
2021/08/19 02:40:36;;;;;;;6.83;6.20;;;18.70;99.90;;;;;;5028574;28;20533;-85
2021/08/19 02:43:07;;;;;;;6.63;5.93;;;18.80;99.90;;;;;;5003992;28;20459;-85
2021/08/19 02:45:35;;;;;;;7.23;5.53;;;18.80;99.90;;;;;;4997128;28;20568;-85
2021/08/19 02:48:02;;;;;;;8.13;5.77;;;18.80;99.90;;;;;;4989419;28;20455;-85
2021/08/19 02:50:29;;;;;;;6.53;5.77;;;18.70;99.90;;;;;;4991265;28;20455;-85
2021/08/19 02:52:57;;;;;;;7.87;5.80;;;18.70;99.90;;;;;;5009467;28;20487;-83
2021/08/19 02:55:25;;;;;;;5.90;5.30;;;18.80;99.90;;;;;;4991969;28;20566;-84
2021/08/19 02:57:52;;;;;;;7.73;5.53;;;18.80;99.90;;;;;;4992896;28;20506;-86
2021/08/19 03:00:18;;;;;;;6.10;5.50;;;18.80;99.90;;;;;;5002902;28;20471;-86
2021/08/19 03:02:45;;;;;;;6.63;5.27;;;18.80;99.90;;;;;;5004124;28;20458;-87
2021/08/19 03:05:12;;;;;;;5.67;5.17;;;18.80;99.90;;;;;;5014861;28;20546;-85
2021/08/19 03:07:39;;;;;;;5.87;5.30;;;18.70;99.90;;;;;;5019860;28;20450;-86
2021/08/19 03:10:07;;;;;;;6.83;5.87;;;18.70;99.90;;;;;;5022822;28;20445;-84
2021/08/19 03:12:33;;;;;;;5.93;5.00;;;18.70;99.90;;;;;;5002644;28;20466;-86
2021/08/19 03:15:00;;;;;;;5.10;4.60;;;18.70;99.90;;;;;;4992729;28;20478;-84
2021/08/19 03:17:28;;;;;;;6.50;4.97;;;18.70;99.90;;;;;;5005538;28;20474;-85
2021/08/19 03:19:55;;;;;;;5.73;5.07;;;18.70;99.90;;;;;;5001832;28;20443;-83
2021/08/19 03:22:22;;;;;;;5.47;4.37;;;18.80;99.90;;;;;;5003271;28;20475;-85
2021/08/19 03:24:49;;;;;;;5.57;5.07;;;18.80;99.90;;;;;;4988393;28;20487;-86
2021/08/19 03:27:16;;;;;;;6.20;4.50;;;18.70;99.90;;;;;;5002908;28;20454;-87
2021/08/19 03:29:43;;;;;;;5.90;4.80;;;18.70;99.90;;;;;;5005746;28;20453;-85
2021/08/19 03:32:10;;;;;;;6.83;4.60;;;18.70;99.90;;;;;;5004634;28;20773;-86
2021/08/19 03:34:37;;;;;;;5.60;5.10;;;18.70;99.90;;;;;;5021518;28;20475;-85
2021/08/19 03:37:06;;;;;;;6.33;4.90;;;18.70;99.90;;;;;;5022206;28;20489;-85
2021/08/19 03:39:35;;;;;;;6.00;5.03;;;18.70;99.90;;;;;;5004997;28;20507;-86
2021/08/19 03:42:05;;;;;;;6.47;5.20;;;18.70;99.90;;;;;;4999902;28;21055;-85
2021/08/19 03:44:32;;;;;;;6.00;4.63;;;18.70;99.90;;;;;;4997304;28;20549;-86
2021/08/19 03:46:59;;;;;;;5.07;4.43;;;18.60;99.90;;;;;;5011308;28;20800;-87
2021/08/19 03:49:26;;;;;;;5.73;4.37;;;18.60;99.90;;;;;;5036409;28;20434;-84
2021/08/19 03:51:53;;;;;;;6.90;5.13;;;18.60;99.90;;;;;;5019480;28;20449;-86
2021/08/19 03:54:20;;;;;;;8.03;5.07;;;18.60;99.90;;;;;;5030279;28;20490;-85
2021/08/19 03:56:47;;;;;;;6.00;4.60;;;18.60;99.90;;;;;;5017336;28;20487;-84
2021/08/19 03:59:14;;;;;;;5.57;4.83;;;18.70;99.90;;;;;;4987938;28;20443;-86
2021/08/19 04:01:42;;;;;;;6.37;5.13;;;18.70;99.90;;;;;;4992186;28;20641;-85
2021/08/19 04:04:09;;;;;;;8.67;5.00;;;18.60;99.90;;;;;;5008964;28;20458;-86
2021/08/19 04:06:36;;;;;;;7.93;5.37;;;18.70;99.90;;;;;;5022012;28;20454;-84
2021/08/19 04:09:03;;;;;;;6.73;5.80;;;18.70;99.90;;;;;;5010775;28;20489;-86
2021/08/19 04:11:29;;;;;;;5.30;4.80;;;18.70;99.90;;;;;;5025856;28;20967;-83
2021/08/19 04:13:56;;;;;;;7.60;5.80;;;18.70;99.90;;;;;;5023585;28;20471;-84
2021/08/19 04:16:23;;;;;;;5.80;4.80;;;18.70;99.90;;;;;;5022275;28;20457;-84
2021/08/19 04:18:50;;;;;;;6.30;5.70;;;18.60;99.90;;;;;;4999490;28;20490;-85
2021/08/19 04:21:17;;;;;;;8.13;4.90;;;18.60;99.90;;;;;;5022808;28;20937;-85
2021/08/19 04:23:44;;;;;;;5.17;4.67;;;18.60;99.90;;;;;;5021849;28;20472;-84
2021/08/19 04:26:12;;;;;;;5.50;4.73;;;18.60;99.90;;;;;;5005558;28;20439;-84
2021/08/19 04:28:39;;;;;;;8.27;4.37;;;18.60;99.90;;;;;;5006469;28;20462;-83
2021/08/19 04:31:06;;;;;;;10.30;5.00;;;18.60;99.90;;;;;;5006424;28;20443;-85
2021/08/19 04:33:35;;;;;;;5.80;5.20;;;18.60;99.90;;;;;;5023327;28;20546;-86
2021/08/19 04:36:02;;;;;;;7.40;4.97;;;18.60;99.90;;;;;;5022416;28;20462;-84
2021/08/19 04:38:33;;;;;;;5.50;4.30;;;18.60;99.90;;;;;;5003636;28;21008;-85
2021/08/19 04:41:01;;;;;;;5.77;4.87;;;18.60;99.90;;;;;;4991450;28;20443;-85
2021/08/19 04:43:28;;;;;;;8.00;4.90;;;18.60;99.90;;;;;;5024032;28;20446;-85
2021/08/19 04:45:55;;;;;;;5.53;4.70;;;18.60;99.90;;;;;;5005907;28;20497;-85
2021/08/19 04:48:22;;;;;;;5.80;4.83;;;18.60;99.90;;;;;;4999871;28;20536;-85
2021/08/19 04:50:49;;;;;;;6.60;4.77;;;18.60;99.90;;;;;;5033731;28;20513;-85
2021/08/19 04:53:16;;;;;;;6.50;4.90;;;18.60;99.90;;;;;;5035874;28;20510;-85
2021/08/19 04:55:43;;;;;;;6.00;4.67;;;18.60;99.90;;;;;;5035431;28;20442;-86
2021/08/19 04:58:10;;;;;;;5.37;4.87;;;18.60;99.90;;;;;;5006775;28;20528;-84
2021/08/19 05:00:40;;;;;;;5.43;4.50;;;18.60;99.90;;;;;;5018876;28;20449;-85
2021/08/19 05:03:07;;;;;;;5.10;4.63;;;18.60;99.90;;;;;;5007938;28;20472;-84
2021/08/19 05:05:34;;;;;;;6.17;4.30;;;18.60;99.90;;;;;;5012296;28;20477;-85
2021/08/19 05:08:01;;;;;;;8.03;5.07;;;18.60;99.90;;;;;;5022525;28;20454;-86
2021/08/19 05:10:28;;;;;;;5.83;4.47;;;18.60;99.90;;;;;;5010369;28;20537;-85
2021/08/19 05:12:55;;;;;;;5.90;4.93;;;18.60;99.90;;;;;;5034456;28;20458;-85
2021/08/19 05:15:23;;;;;;;5.00;4.33;;;18.60;99.90;;;;;;5015181;28;20585;-85
2021/08/19 05:17:50;;;;;;;5.23;4.60;;;18.60;99.90;;;;;;5025001;28;20478;-85
2021/08/19 05:20:17;;;;;;;5.70;4.50;;;18.60;99.90;;;;;;5024597;28;20450;-85
2021/08/19 05:22:44;;;;;;;5.93;4.20;;;18.70;99.90;;;;;;5025286;28;20459;-86
2021/08/19 05:25:24;;;;;;;6.07;5.07;;;18.90;99.90;;;;;;5025460;28;20573;-85
2021/08/19 05:27:51;;;;;;;6.03;4.73;;;18.90;99.90;;;;;;5024792;28;20488;-86
2021/08/19 05:30:18;;;;;;;5.57;5.00;;;18.80;99.90;;;;;;5023183;28;20454;-86
2021/08/19 05:32:45;;;;;;;6.10;4.97;;;18.70;99.90;;;;;;5511839;22;20556;-82
2021/08/19 05:35:12;;;;;;;5.23;4.00;;;18.70;99.90;;;;;;5027359;28;20486;-85
2021/08/19 05:37:38;;;;;;;5.13;4.13;;;18.70;99.90;;;;;;5009652;28;20485;-84
2021/08/19 05:40:06;;;;;;;6.33;3.67;;;18.70;99.90;;;;;;5007296;28;20996;-85
2021/08/19 05:42:33;;;;;;;6.10;5.10;;;18.70;99.90;;;;;;5024846;28;20453;-84
2021/08/19 05:45:00;;;;;;;8.43;4.20;;;18.70;99.90;;;;;;5008594;28;20566;-84
2021/08/19 05:47:26;;;;;;;6.37;5.53;;;18.70;99.90;;;;;;5025310;28;20450;-83
2021/08/19 05:49:53;;;;;;;28.03;5.57;;;18.60;99.90;;;;;;5008559;28;20458;-83
2021/08/19 05:52:20;;;;;;;5.80;5.20;;;18.60;99.90;;;;;;5007461;28;20442;-84
2021/08/19 05:54:48;;;;;;;6.40;5.70;;;18.60;99.90;;;;;;5025780;28;20557;-84
2021/08/19 05:57:16;;;;;;;5.87;5.30;;;18.60;99.90;;;;;;5006674;28;20516;-84
2021/08/19 05:59:43;;;;;;;5.83;4.77;;;18.70;99.90;;;;;;5006652;28;20478;-85
2021/08/19 06:02:10;;;;;;;6.07;5.57;;;18.70;99.90;;;;;;5021832;28;20442;-85
2021/08/19 06:04:38;;;;;;;7.60;5.17;;;18.70;99.90;;;;;;5012089;28;20540;-81
2021/08/19 06:07:08;;;;;;;6.20;5.60;;;18.70;99.90;;;;;;5014398;28;20812;-85
2021/08/19 06:09:36;;;;;;;5.87;5.20;;;18.60;99.90;;;;;;5018569;28;20470;-82
2021/08/19 06:12:04;;;;;;;6.27;5.60;;;18.70;99.90;;;;;;5011850;28;20447;-85
2021/08/19 06:14:31;;;;;;;8.60;6.00;;;18.70;99.90;;;;;;5002373;28;20543;-85
2021/08/19 06:17:01;;;;;;;7.97;5.60;;;18.70;99.90;;;;;;5013944;28;20508;-84
2021/08/19 06:19:27;;;;;;;8.77;6.37;;;18.70;99.90;;;;;;5007365;28;20438;-83
2021/08/19 06:21:54;;;;;;;6.87;6.17;;;18.70;99.90;;;;;;5005696;28;20459;-86
2021/08/19 06:24:21;;;;;;;9.80;6.70;;;18.70;99.90;;;;;;5024406;28;20934;-86
2021/08/19 06:26:48;;;;;;;8.50;6.90;;;18.70;99.90;;;;;;5023764;28;20488;-85
2021/08/19 06:29:16;;;;;;;7.40;6.60;;;18.80;99.90;;;;;;5024533;28;20463;-87
2021/08/19 06:31:43;;;;;;;8.30;6.40;;;18.80;99.90;;;;;;5053001;28;20433;-88
2021/08/19 06:37:51;;;;;;;6.47;5.77;;;18.70;99.90;;;;;;5019972;28;20593;-85
2021/08/19 06:40:18;;;;;;;6.00;5.40;;;18.70;99.90;;;;;;5028672;28;20457;-86
2021/08/19 06:42:45;;;;;;;6.47;5.80;;;18.70;99.90;;;;;;5037906;28;20508;-84
2021/08/19 06:45:12;;;;;;;5.20;4.80;;;18.70;99.90;;;;;;5028741;28;20466;-86
2021/08/19 06:47:39;;;;;;;6.17;5.60;;;18.70;99.90;;;;;;4999602;28;20458;-84
2021/08/19 06:50:07;;;;;;;7.63;5.83;;;18.70;99.90;;;;;;5027738;28;20454;-85
2021/08/19 06:52:43;;;;;;;8.07;6.07;;;18.70;99.90;;;;;;5044824;28;20822;-86
2021/08/19 06:55:10;;;;;;;6.37;5.70;;;18.70;99.90;;;;;;5012266;28;20480;-86
2021/08/19 06:57:38;;;;;;;6.37;5.70;;;18.70;99.90;;;;;;5007755;28;20482;-84
2021/08/19 07:00:08;;;;;;;6.80;5.90;;;18.70;99.90;;;;;;5033504;28;20545;-86
2021/08/19 07:02:38;;;;;;;7.50;5.60;;;18.70;99.90;;;;;;5005973;28;20455;-85
2021/08/19 07:05:08;;;;;;;6.70;6.10;;;18.70;99.90;;;;;;5004260;28;20470;-83
2021/08/19 07:07:34;;;;;;;6.40;5.57;;;18.70;99.90;;;;;;5005449;28;20532;-85
2021/08/19 07:10:07;;;;;;;7.50;5.60;;;18.80;99.90;;;;;;5006604;28;20450;-84
2021/08/19 07:12:35;;;;;;;6.70;5.70;;;18.80;99.90;;;;;;5022955;28;20473;-87
2021/08/19 07:15:03;;;;;;;7.40;6.70;;;18.70;99.90;;;;;;5001963;28;20538;-85
2021/08/19 07:17:30;;;;;;;6.43;5.80;;;18.80;99.90;;;;;;5021588;28;20486;-86
2021/08/19 07:20:00;;;;;;;6.90;6.03;;;18.70;99.90;;;;;;5006800;28;20505;-85
2021/08/19 07:22:27;;;;;;;7.10;6.40;;;18.80;99.90;;;;;;5002875;28;20534;-83
2021/08/19 07:24:54;;;;;;;7.20;5.63;;;18.80;99.90;;;;;;4989527;28;21014;-83
2021/08/19 07:27:21;;;;;;;7.07;6.40;;;18.80;99.90;;;;;;5019396;28;20458;-84
2021/08/19 07:29:48;;;;;;;9.87;5.97;;;18.80;99.90;;;;;;5022361;28;20466;-87
2021/08/19 07:32:19;;;;;;;6.13;5.53;;;18.90;99.90;;;;;;5009992;28;20516;-85
2021/08/19 07:34:47;;;;;;;8.87;6.47;;;19.00;99.90;;;;;;5010016;28;20477;-86
2021/08/19 07:37:15;;;;;;;6.70;5.20;;;19.00;99.90;;;;;;5006274;28;20454;-85
2021/08/19 07:39:42;;;;;;;10.40;5.50;;;19.00;99.90;;;;;;5005486;28;20486;-84
2021/08/19 07:42:09;;;;;;;6.50;5.33;;;19.00;99.90;;;;;;5021120;28;20504;-84
2021/08/19 07:44:36;;;;;;;6.03;5.43;;;19.00;99.90;;;;;;5005323;28;20470;-83
2021/08/19 07:47:03;;;;;;;5.63;5.13;;;19.00;99.90;;;;;;5004385;28;20454;-83
2021/08/19 07:49:30;;;;;;;4.80;4.30;;;19.00;99.90;;;;;;5021880;28;21010;-85
2021/08/19 07:51:58;;;;;;;5.00;4.40;;;19.00;99.90;;;;;;5005617;28;20821;-83
2021/08/19 07:54:39;;;;;;;5.40;4.70;;;19.00;99.90;;;;;;5008290;28;20493;-85
2021/08/19 07:57:08;;;;;;;5.07;4.57;;;19.00;99.90;;;;;;5015014;28;20461;-84
2021/08/19 07:59:38;;;;;;;5.63;4.67;;;19.00;99.90;;;;;;5013453;28;20548;-84
2021/08/19 08:02:19;;;;;;;5.23;4.10;;;19.10;99.90;;;;;;5026458;28;20815;-85
2021/08/19 08:04:47;;;;;;;4.80;4.20;;;19.20;99.90;;;;;;5005266;28;20470;-85
2021/08/19 08:07:23;;;;;;;5.33;4.70;;;19.30;99.90;;;;;;4989385;28;20442;-85
2021/08/19 08:10:05;;;;;;;5.93;4.20;;;19.50;99.90;;;;;;5005711;28;20459;-83
2021/08/19 08:12:44;;;;;;;7.60;4.73;;;19.90;99.90;;;;;;5011854;28;20902;-86
2021/08/19 08:15:15;;;;;;;8.53;5.90;;;20.70;99.90;;;;;;5009089;28;20500;-83
2021/08/19 08:17:42;;;;;;;6.33;5.70;;;21.20;99.90;;;;;;5019875;28;20441;-84
2021/08/19 08:20:11;;;;;;;5.13;4.63;;;21.10;99.90;;;;;;5023078;28;20460;-85
2021/08/19 08:22:43;;;;;;;10.37;5.17;;;20.90;99.90;;;;;;5019341;28;20818;-85
2021/08/19 08:25:20;;;;;;;6.63;6.03;;;20.80;99.90;;;;;;5003812;28;20549;-84
2021/08/19 08:28:09;;;;;;;6.30;4.97;;;20.70;99.90;;;;;;5003370;28;20454;-85
2021/08/19 08:30:42;;;;;;;7.57;5.10;;;20.70;99.90;;;;;;5010843;28;20451;-84
2021/08/19 08:33:09;;;;;;;7.40;5.20;;;21.20;99.90;;;;;;5009876;28;20446;-85
2021/08/19 08:35:39;;;;;;;5.53;5.00;;;21.70;99.90;;;;;;5009932;28;20546;-86
2021/08/19 08:38:11;;;;;;;6.60;5.60;;;21.50;99.90;;;;;;5007846;28;20478;-86
2021/08/19 08:40:40;;;;;;;5.97;5.10;;;21.30;99.90;;;;;;5022312;28;21318;-84
2021/08/19 08:43:08;;;;;;;4.37;3.90;;;21.10;99.90;;;;;;5027351;28;20533;-84
2021/08/19 08:45:36;;;;;;;5.30;4.80;;;21.90;99.90;;;;;;5044962;28;20477;-84
2021/08/19 08:48:05;;;;;;;5.37;4.63;;;22.90;98.00;;;;;;5039399;28;20558;-84
2021/08/19 08:50:33;;;;;;;5.77;5.17;;;22.80;96.60;;;;;;5019743;28;20448;-85
2021/08/19 08:53:01;;;;;;;6.00;5.43;;;22.30;97.30;;;;;;5023097;28;20919;-86
2021/08/19 08:55:28;;;;;;;5.87;4.67;;;22.10;97.90;;;;;;5028402;28;20493;-83
2021/08/19 08:57:55;;;;;;;6.17;5.13;;;22.00;98.30;;;;;;5024941;28;20449;-84
2021/08/19 09:00:23;;;;;;;6.50;5.20;;;21.80;98.20;;;;;;5035543;28;20430;-83
2021/08/19 09:03:09;;;;;;;6.20;5.07;;;21.50;98.80;;;;;;5038082;28;20469;-83
2021/08/19 09:05:41;;;;;;;5.90;4.40;;;21.40;99.30;;;;;;5018373;28;20486;-84
2021/08/19 09:08:16;;;;;;;6.63;4.97;;;21.70;99.10;;;;;;5019440;28;20431;-86
2021/08/19 09:10:44;;;;;;;6.40;4.87;;;21.90;98.70;;;;;;5020259;28;20497;-84
2021/08/19 09:13:16;;;;;;;7.63;5.20;;;21.60;98.60;;;;;;5019000;28;20510;-87
2021/08/19 09:15:45;;;;;;;7.40;5.03;;;21.20;99.40;;;;;;5022192;28;20553;-86
2021/08/19 09:18:30;;;;;;;5.30;4.80;;;21.00;99.90;;;;;;5020336;28;20541;-84
2021/08/19 09:20:57;;;;;;;9.00;4.93;;;20.70;99.90;;;;;;5016118;28;20462;-83
2021/08/19 09:23:24;;;;;;;5.30;4.90;;;20.50;99.90;;;;;;5017792;28;20469;-86
2021/08/19 09:25:54;;;;;;;6.00;5.40;;;20.40;99.90;;;;;;5013558;28;20453;-84
2021/08/19 09:28:24;;;;;;;6.00;5.40;;;20.30;99.90;;;;;;5029687;28;20456;-85
2021/08/19 09:31:06;;;;;;;6.10;5.50;;;20.30;99.90;;;;;;5028220;28;20479;-85
2021/08/19 09:33:46;;;;;;;6.33;5.73;;;20.30;99.90;;;;;;5014746;28;20454;-84
2021/08/19 09:36:32;;;;;;;5.63;5.07;;;20.30;99.90;;;;;;5009800;28;20508;-84
2021/08/19 09:39:46;;;;;;;7.67;4.70;;;20.30;99.90;;;;;;4988922;28;20561;-85
2021/08/19 09:42:38;;;;;;;5.60;5.10;;;20.30;99.90;;;;;;5026420;28;20450;-84
2021/08/19 09:45:25;;;;;;;6.43;5.13;;;20.20;99.90;;;;;;4990155;28;20470;-84
2021/08/19 09:48:10;;;;;;;5.47;4.93;;;20.20;99.90;;;;;;4990769;28;20447;-84
2021/08/19 09:50:41;;;;;;;5.23;4.27;;;20.20;99.90;;;;;;5005373;28;20443;-84
2021/08/19 09:53:24;;;;;;;8.07;5.20;;;20.10;99.90;;;;;;5007361;28;20473;-83
2021/08/19 09:55:53;;;;;;;8.27;5.60;;;20.20;99.90;;;;;;5004705;28;20482;-84
2021/08/19 09:58:31;;;;;;;7.10;5.63;;;20.30;99.90;;;;;;5015214;28;20481;-85
2021/08/19 10:01:00;;;;;;;8.20;4.83;;;20.40;99.90;;;;;;5025178;28;20469;-83
2021/08/19 10:03:30;;;;;;;6.70;5.20;;;20.30;99.90;;;;;;5007831;28;20454;-89
2021/08/19 10:05:59;;;;;;;10.70;6.73;;;20.30;99.90;;;;;;5002496;28;20454;-85
2021/08/19 10:08:26;;;;;;;7.17;4.77;;;20.40;99.90;;;;;;5015331;28;20481;-86
2021/08/19 10:10:59;;;;;;;5.30;4.80;;;20.40;99.90;;;;;;5030799;28;20443;-84
2021/08/19 10:13:27;;;;;;;7.77;4.77;;;20.20;99.90;;;;;;5021263;28;20430;-85
2021/08/19 10:15:55;;;;;;;5.53;5.03;;;20.10;99.90;;;;;;5024456;28;20461;-87
2021/08/19 10:18:26;;;;;;;5.87;3.87;;;20.10;99.90;;;;;;5011470;28;20479;-86
2021/08/19 10:21:13;;;;;;;6.37;4.40;;;20.10;99.90;;;;;;5024661;28;20450;-84
2021/08/19 10:24:00;;;;;;;4.90;4.37;;;20.10;99.90;;;;;;5030385;28;20465;-84
2021/08/19 10:26:27;;;;;;;5.33;4.80;;;20.10;99.90;;;;;;5007285;28;20438;-84
2021/08/19 10:28:59;;;;;;;5.57;4.73;;;20.10;99.90;;;;;;5016239;28;20456;-85
2021/08/19 10:31:39;;;;;;;5.23;4.73;;;20.10;99.90;;;;;;5003037;28;20470;-87
2021/08/19 10:34:07;;;;;;;5.37;4.47;;;20.10;99.90;;;;;;5029611;28;20481;-85
2021/08/19 10:36:46;;;;;;;8.50;5.53;;;20.20;99.90;;;;;;5021965;28;21203;-87
2021/08/19 10:39:19;;;;;;;7.30;5.27;;;20.20;99.90;;;;;;4989933;28;20527;-85
2021/08/19 10:41:46;;;;;;;6.43;5.83;;;20.30;99.90;;;;;;5003501;28;20452;-86
2021/08/19 10:44:44;;;;;;;6.77;5.90;;;20.40;99.90;;;;;;5009124;28;20536;-86
2021/08/19 10:47:33;;;;;;;7.27;4.97;;;20.40;99.90;;;;;;5002477;28;20454;-85
2021/08/19 10:50:20;;;;;;;6.27;5.67;;;20.50;99.90;;;;;;5015878;28;20460;-86
2021/08/19 10:52:48;;;;;;;7.40;6.67;;;20.50;99.90;;;;;;4984631;28;20481;-85
2021/08/19 10:55:17;;;;;;;7.13;6.53;;;20.50;99.90;;;;;;5002034;28;20478;-85
2021/08/19 10:57:48;;;;;;;7.00;5.90;;;20.50;99.90;;;;;;5023045;28;20451;-87
2021/08/19 11:00:16;;;;;;;7.27;6.43;;;20.50;99.90;;;;;;5003426;28;20889;-86
2021/08/19 11:02:46;;;;;;;6.33;5.70;;;20.50;99.90;;;;;;5005055;28;20451;-86
2021/08/19 11:05:38;;;;;;;6.63;5.47;;;20.50;99.90;;;;;;5004507;28;21221;-86
2021/08/19 11:08:06;;;;;;;9.27;6.40;;;20.50;99.90;;;;;;5002919;28;20807;-85
2021/08/19 11:10:38;;;;;;;7.37;5.90;;;20.40;99.90;;;;;;5003084;28;20459;-85
2021/08/19 11:13:13;;;;;;;5.97;5.20;;;20.60;99.90;;;;;;5009167;28;20469;-85
2021/08/19 11:16:09;;;;;;;6.70;6.10;;;20.90;99.90;;;;;;5017874;28;20470;-85
2021/08/19 11:18:44;;;;;;;6.20;5.70;;;21.00;99.90;;;;;;5036445;28;20477;-86
2021/08/19 11:21:12;;;;;;;7.40;6.23;;;21.10;99.90;;;;;;5008975;28;20537;-86
2021/08/19 11:24:01;;;;;;;6.00;5.40;;;21.10;99.90;;;;;;5000253;28;20466;-85
2021/08/19 11:27:06;;;;;;;4.57;4.17;;;21.20;99.90;;;;;;5031247;28;20420;-88
2021/08/19 11:29:40;;;;;;;6.43;4.20;;;21.40;99.90;;;;;;5015831;28;20526;-86
2021/08/19 11:32:47;;;;;;;4.87;4.37;;;21.40;99.70;;;;;;4999914;28;20438;-85
2021/08/19 11:35:52;;;;;;;6.70;4.77;;;21.60;99.70;;;;;;5017892;28;20488;-85
2021/08/19 11:38:33;;;;;;;5.60;4.23;;;21.70;99.70;;;;;;5009716;28;20458;-84
2021/08/19 11:41:33;;;;;;;6.07;4.63;;;21.80;99.50;;;;;;4999654;28;20453;-85
2021/08/19 11:44:08;;;;;;;4.87;4.23;;;21.70;99.50;;;;;;5004111;28;20470;-83
2021/08/19 11:46:51;;;;;;;5.03;4.60;;;21.40;99.90;;;;;;5017303;28;20736;-85
2021/08/19 11:49:29;;;;;;;5.00;4.60;;;21.10;99.90;;;;;;5034997;28;20672;-83
2021/08/19 11:52:08;;;;;;;5.73;5.00;;;20.90;99.90;;;;;;5024459;28;20500;-83
2021/08/19 11:54:42;;;;;;;4.50;4.20;;;20.80;99.90;;;;;;5007876;28;20516;-84
2021/08/19 11:57:20;;;;;;;5.20;4.70;;;20.80;99.90;;;;;;5009023;28;20512;-84
2021/08/19 12:00:12;;;;;;;4.40;3.87;;;20.70;99.90;;;;;;5025178;28;20469;-87
2021/08/19 12:03:03;;;;;;;3.73;3.53;;;20.70;99.90;;;;;;5015605;28;20452;-85
2021/08/19 12:06:05;;;;;;;3.07;2.87;;;20.70;99.90;;;;;;4972400;28;20527;-82
2021/08/19 12:08:35;;;;;;;4.23;2.60;;;20.70;99.90;;;;;;4998764;28;20528;-85
2021/08/19 12:11:09;;;;;;;2.57;2.37;;;20.70;99.90;;;;;;5021141;28;20531;-87
2021/08/19 12:13:56;;;;;;;2.50;2.30;;;20.80;99.90;;;;;;5024975;28;20481;-86
2021/08/19 12:16:51;;;;;;;1.90;1.80;;;21.00;99.90;;;;;;5010307;28;20457;-85
2021/08/19 12:19:33;;;;;;;3.20;1.90;;;21.30;99.90;;;;;;5003880;28;20479;-84
2021/08/19 12:22:15;;;;;;;2.20;1.33;;;21.70;99.50;;;;;;5010112;28;20978;-86
2021/08/19 12:24:51;;;;;;;1.57;1.47;;;21.90;98.00;;;;;;5013409;28;20474;-87
2021/08/19 12:27:42;;;;;;;2.27;1.80;;;22.20;97.40;;;;;;5021837;28;20452;-83
2021/08/19 12:30:24;;;;;;;2.73;2.23;;;22.40;96.60;;;;;;5005149;28;20477;-84
2021/08/19 12:33:31;;;;;;;3.40;2.60;;;22.30;96.80;;;;;;5007886;28;20916;-87
2021/08/19 12:36:19;;;;;;;2.43;2.23;;;22.40;96.90;;;;;;5006230;28;20489;-85
2021/08/19 12:38:48;;;;;;;2.60;2.03;;;22.50;96.10;;;;;;5017877;28;20525;-86
2021/08/19 12:41:17;;;;;;;2.80;2.00;;;22.60;95.90;;;;;;5014112;28;20462;-83
2021/08/19 12:43:46;;;;;;;4.73;2.77;;;22.70;95.30;;;;;;5041642;28;20496;-83
2021/08/19 12:46:14;;;;;;;4.00;2.53;;;22.50;95.00;;;;;;5010532;28;20473;-84
2021/08/19 12:48:43;;;;;;;3.80;2.20;;;22.40;95.30;;;;;;5007795;28;20489;-87
2021/08/19 12:51:16;;;;;;;2.60;2.27;;;22.50;95.80;;;;;;5029061;28;20488;-82
2021/08/19 12:54:09;;;;;;;3.00;2.13;;;22.50;95.80;;;;;;5025707;28;20540;-83
2021/08/19 12:56:39;;;;;;;3.80;1.97;;;22.60;95.60;;;;;;5011970;28;20454;-86
2021/08/19 12:59:07;;;;;;;3.33;1.70;;;22.50;94.40;;;;;;5005131;28;20553;-83
2021/08/19 13:01:35;;;;;;;1.83;1.57;;;22.40;94.60;;;;;;5013533;28;20452;-86
2021/08/19 13:04:04;;;;;;;1.70;1.60;;;22.50;94.90;;;;;;5002684;28;20505;-84
2021/08/19 13:06:42;;;;;;;1.57;1.47;;;22.70;95.00;;;;;;5013654;28;20449;-84
2021/08/19 13:09:38;;;;;;;2.07;1.80;;;22.60;94.00;;;;;;5008467;28;20458;-85